Time;durP1;ratioP1;P1;durP2;ratioP2;P2;SDS_P1;SDS_P2;PMS_P1;PMS_P2;Temp;Humidity;BMP_temperature;BMP_pressure;BME280_temperature;BME280_humidity;BME280_pressure;Samples;Min_cycle;Max_cycle;Signal;HPM_P1;HPM_P2
2021/06/10 00:00:17;;;;;;;16.48;12.90;;;;;;;14.47;86.83;95978.88;4894750;29;20048;-72
2021/06/10 00:03:04;;;;;;;16.13;13.57;;;;;;;14.48;86.97;95980.44;4902170;29;20162;-72
2021/06/10 00:05:30;;;;;;;16.08;13.18;;;;;;;14.43;87.30;95980.50;4903413;29;20447;-72
2021/06/10 00:07:56;;;;;;;17.20;13.40;;;;;;;14.35;87.62;95977.41;4907584;29;20525;-72
2021/06/10 00:10:24;;;;;;;16.70;13.23;;;;;;;14.40;87.55;95983.72;4916901;29;20047;-71
2021/06/10 00:12:50;;;;;;;16.85;14.07;;;;;;;14.33;87.95;95982.19;4926660;29;20044;-72
2021/06/10 00:15:25;;;;;;;17.70;13.90;;;;;;;14.36;87.69;95981.59;4914148;29;20048;-72
2021/06/10 00:17:50;;;;;;;;;;;;;;;14.33;87.95;95984.03;4895687;29;20100;-72
2021/06/10 00:20:19;;;;;;;17.42;14.40;;;;;;;14.29;88.17;95983.81;4895000;29;19931;-72
2021/06/10 00:22:45;;;;;;;18.95;15.13;;;;;;;14.29;88.09;95989.09;4916266;29;20052;-72
2021/06/10 00:25:11;;;;;;;17.92;14.23;;;;;;;14.29;88.00;95989.09;4914803;29;20534;-72
2021/06/10 00:27:38;;;;;;;17.88;14.82;;;;;;;14.27;87.89;95996.53;4911354;29;20418;-72
2021/06/10 00:30:08;;;;;;;19.92;14.35;;;;;;;14.20;88.18;95985.50;4914974;29;20187;-71
2021/06/10 00:32:34;;;;;;;20.83;14.13;;;;;;;14.27;88.01;95996.53;4929643;29;20458;-72
2021/06/10 00:35:00;;;;;;;20.17;15.05;;;;;;;14.24;87.99;95991.81;4916071;29;20052;-72
2021/06/10 00:37:25;;;;;;;17.08;13.85;;;;;;;14.23;87.68;95990.22;4928822;29;20047;-72
2021/06/10 00:39:51;;;;;;;18.40;14.40;;;;;;;14.21;87.81;95995.03;4894729;29;20068;-72
2021/06/10 00:42:16;;;;;;;18.98;13.18;;;;;;;14.17;87.84;95999.28;4894549;29;20044;-72
2021/06/10 00:44:42;;;;;;;19.33;13.35;;;;;;;14.15;87.74;95998.78;4899856;29;20443;-71
2021/06/10 00:47:08;;;;;;;16.98;13.07;;;;;;;14.13;87.49;95985.81;4904310;29;20434;-72
2021/06/10 00:49:33;;;;;;;16.42;13.88;;;;;;;14.06;88.39;95992.53;4914419;29;20040;-74
2021/06/10 00:51:59;;;;;;;18.88;14.30;;;;;;;13.98;88.66;95989.41;4908575;29;20538;-74
2021/06/10 00:54:26;;;;;;;17.30;13.50;;;;;;;13.89;88.55;95988.41;4907375;29;20049;-74
2021/06/10 00:56:52;;;;;;;19.55;14.23;;;;;;;13.86;88.63;95983.69;4909525;29;20608;-74
2021/06/10 00:59:18;;;;;;;20.67;14.30;;;;;;;13.94;88.70;95988.38;4896980;29;20104;-74
2021/06/10 01:01:44;;;;;;;19.58;13.55;;;;;;;13.85;88.59;95984.78;4903672;29;20408;-74
2021/06/10 01:04:09;;;;;;;16.80;13.75;;;;;;;13.83;88.76;95982.41;4921775;29;20048;-75
2021/06/10 01:07:10;;;;;;;17.00;13.23;;;;;;;13.83;88.38;95981.59;4903814;29;20131;-71
2021/06/10 01:09:48;;;;;;;16.30;12.88;;;;;;;13.68;88.70;95975.38;4883155;29;20064;-72
2021/06/10 01:12:21;;;;;;;17.67;13.55;;;;;;;13.71;88.72;95989.13;4911876;29;20053;-71
2021/06/10 01:14:59;;;;;;;16.95;13.93;;;;;;;13.61;89.24;95990.78;4926167;29;20055;-74
2021/06/10 01:17:26;;;;;;;18.83;14.48;;;;;;;13.57;89.51;95989.75;4921008;29;20099;-75
2021/06/10 01:20:06;;;;;;;21.45;15.15;;;;;;;13.50;89.68;95989.28;4916335;29;20052;-74
2021/06/10 01:22:39;;;;;;;20.95;13.70;;;;;;;13.54;89.67;95995.59;4923070;29;20044;-74
2021/06/10 01:25:31;;;;;;;19.20;14.43;;;;;;;13.49;89.75;95993.78;4912761;29;20147;-74
2021/06/10 01:28:00;;;;;;;18.38;13.75;;;;;;;13.50;89.44;95994.56;4911432;29;20138;-73
2021/06/10 01:30:30;;;;;;;17.67;13.55;;;;;;;13.48;89.47;95992.19;4921922;29;20043;-73
2021/06/10 01:33:02;;;;;;;16.50;13.25;;;;;;;13.48;89.41;95986.91;4901592;29;20068;-73
2021/06/10 01:35:32;;;;;;;17.40;12.85;;;;;;;13.50;89.46;95989.28;4913977;29;20421;-73
2021/06/10 01:38:00;;;;;;;16.25;12.93;;;;;;;13.39;89.36;95977.19;4903534;29;20052;-73
2021/06/10 01:40:26;;;;;;;17.98;14.15;;;;;;;13.29;89.84;95970.88;4896988;29;20256;-73
2021/06/10 01:42:54;;;;;;;16.73;13.10;;;;;;;13.27;89.46;95977.50;4897599;29;20513;-73
2021/06/10 01:45:21;;;;;;;17.20;13.77;;;;;;;13.16;89.96;95974.16;4915897;29;20393;-73
2021/06/10 01:47:47;;;;;;;16.83;13.50;;;;;;;13.18;89.75;95974.66;4931612;29;20417;-73
2021/06/10 01:50:16;;;;;;;18.58;13.55;;;;;;;13.18;90.03;95978.09;4934577;29;20044;-73
2021/06/10 01:52:44;;;;;;;16.98;12.77;;;;;;;13.17;89.03;95975.72;4917810;29;20306;-73
2021/06/10 01:55:13;;;;;;;18.35;12.65;;;;;;;13.07;88.87;95967.84;4926910;29;20059;-73
2021/06/10 01:57:40;;;;;;;15.38;11.73;;;;;;;13.09;88.68;95973.69;4920285;29;20107;-73
2021/06/10 02:00:09;;;;;;;15.30;12.15;;;;;;;13.08;88.36;95972.09;4913599;29;20044;-74
2021/06/10 02:02:36;;;;;;;16.40;12.27;;;;;;;12.96;89.17;95973.19;4906902;29;20576;-73
2021/06/10 02:05:08;;;;;;;17.20;14.45;;;;;;;12.85;90.34;95969.03;4915905;29;20052;-73
2021/06/10 02:07:42;;;;;;;18.70;13.95;;;;;;;12.83;90.67;95971.16;4929119;29;20609;-73
2021/06/10 02:10:15;;;;;;;20.42;14.75;;;;;;;12.88;90.89;95979.06;4925849;29;20100;-73
2021/06/10 02:12:43;;;;;;;23.02;14.05;;;;;;;12.90;90.43;95976.94;4904720;29;20040;-73
2021/06/10 02:15:09;;;;;;;17.20;13.68;;;;;;;12.83;90.71;95971.16;4915670;29;20052;-73
2021/06/10 02:17:36;;;;;;;19.23;15.27;;;;;;;12.81;90.41;95973.28;4919682;29;20048;-73
2021/06/10 02:20:04;;;;;;;17.63;14.60;;;;;;;12.82;90.77;95969.59;4921277;29;20124;-73
2021/06/10 02:22:30;;;;;;;18.98;14.63;;;;;;;12.80;90.41;95966.41;4917816;29;20052;-74
2021/06/10 02:24:56;;;;;;;18.67;14.50;;;;;;;12.76;90.21;95970.69;4928354;29;20478;-73
2021/06/10 02:27:22;;;;;;;21.20;15.77;;;;;;;12.77;90.88;95972.25;4923921;29;20047;-72
2021/06/10 02:29:48;;;;;;;20.20;15.55;;;;;;;12.80;90.76;95976.97;4923994;29;20191;-73
2021/06/10 02:32:14;;;;;;;23.52;15.63;;;;;;;12.75;90.97;95979.66;4908055;29;20041;-73
2021/06/10 02:34:40;;;;;;;20.67;15.98;;;;;;;12.81;90.80;95975.91;4904018;29;20370;-73
2021/06/10 02:37:07;;;;;;;20.67;15.02;;;;;;;12.80;90.59;95983.06;4915440;29;20056;-73
2021/06/10 02:39:38;;;;;;;22.27;16.42;;;;;;;12.78;90.64;95984.38;4896729;29;20048;-73
2021/06/10 02:42:05;;;;;;;20.73;14.75;;;;;;;12.73;90.77;95981.75;4909274;29;20048;-73
2021/06/10 02:44:31;;;;;;;20.85;15.38;;;;;;;12.71;90.91;95987.31;4931387;29;20067;-73
2021/06/10 02:47:02;;;;;;;22.27;15.65;;;;;;;12.73;91.17;95987.03;4916252;29;20112;-73
2021/06/10 02:49:28;;;;;;;19.38;15.95;;;;;;;12.82;90.82;95990.72;4896333;29;20135;-73
2021/06/10 02:51:54;;;;;;;20.52;15.27;;;;;;;12.83;90.54;95987.00;4895738;29;20049;-73
2021/06/10 02:54:21;;;;;;;21.13;15.70;;;;;;;12.86;91.26;95986.47;4896136;29;20567;-74
2021/06/10 02:56:47;;;;;;;25.27;16.95;;;;;;;12.97;90.96;95988.00;4899246;29;20356;-73
2021/06/10 02:59:16;;;;;;;24.02;16.52;;;;;;;13.00;90.89;95987.44;4912432;29;20047;-73
2021/06/10 03:01:44;;;;;;;19.95;15.43;;;;;;;13.12;90.34;95984.47;4903444;29;20129;-73
2021/06/10 03:04:11;;;;;;;23.67;15.60;;;;;;;13.21;89.92;95986.53;4918766;29;20449;-73
2021/06/10 03:06:38;;;;;;;26.63;16.02;;;;;;;13.23;90.20;95990.50;4920897;29;20062;-73
2021/06/10 03:09:04;;;;;;;23.95;15.80;;;;;;;13.27;90.13;95991.50;4907331;29;20066;-73
2021/06/10 03:11:30;;;;;;;21.63;15.07;;;;;;;13.25;90.07;95984.94;4895345;29;20052;-73
2021/06/10 03:13:57;;;;;;;21.25;15.57;;;;;;;13.29;89.79;95984.09;4912716;29;20060;-73
2021/06/10 03:16:23;;;;;;;20.10;15.55;;;;;;;13.36;89.53;95983.03;4914552;29;20570;-74
2021/06/10 03:18:50;;;;;;;18.55;14.98;;;;;;;13.47;89.11;95992.47;4910634;29;20487;-73
2021/06/10 03:21:17;;;;;;;21.98;14.48;;;;;;;13.43;89.61;95988.78;4913794;29;20396;-73
2021/06/10 03:23:43;;;;;;;19.33;14.32;;;;;;;13.47;89.36;95987.19;4929025;29;20039;-73
2021/06/10 03:26:09;;;;;;;20.60;13.95;;;;;;;13.50;89.36;96002.50;4928147;29;20047;-73
2021/06/10 03:28:36;;;;;;;18.50;13.65;;;;;;;13.56;89.29;96009.34;4899302;29;20049;-73
2021/06/10 03:31:02;;;;;;;17.73;14.45;;;;;;;13.59;89.09;96003.50;4919601;29;20057;-73
2021/06/10 03:33:28;;;;;;;20.00;14.40;;;;;;;13.66;89.02;95998.69;4923971;29;20095;-73
2021/06/10 03:35:55;;;;;;;20.45;14.48;;;;;;;13.69;88.66;96000.78;4921113;29;20047;-73
2021/06/10 03:38:22;;;;;;;19.85;13.70;;;;;;;13.69;88.76;95998.13;4916637;29;20059;-73
2021/06/10 03:40:49;;;;;;;16.92;13.40;;;;;;;13.80;88.44;95992.75;4908523;29;20044;-73
2021/06/10 03:43:17;;;;;;;17.58;13.90;;;;;;;13.86;87.96;95996.91;4900678;29;20052;-73
2021/06/10 03:45:42;;;;;;;18.67;13.48;;;;;;;13.86;87.95;95991.63;4924716;29;20068;-73
2021/06/10 03:48:10;;;;;;;18.98;13.98;;;;;;;13.90;87.74;95992.66;4908464;29;20559;-73
2021/06/10 03:50:37;;;;;;;21.35;13.70;;;;;;;13.88;87.96;95994.81;4907317;29;20067;-73
2021/06/10 03:53:06;;;;;;;16.63;13.23;;;;;;;13.89;87.99;95996.34;4910948;29;20070;-73
2021/06/10 03:55:33;;;;;;;17.30;13.10;;;;;;;13.88;88.17;95992.16;4917991;29;20048;-73
2021/06/10 03:57:59;;;;;;;17.95;14.07;;;;;;;13.88;88.07;95994.00;4928210;29;20065;-73
2021/06/10 04:00:24;;;;;;;18.35;14.63;;;;;;;13.83;88.11;95992.19;4917655;29;20127;-73
2021/06/10 04:02:50;;;;;;;20.83;13.85;;;;;;;13.86;88.17;95989.78;4901802;29;20556;-73
2021/06/10 04:05:16;;;;;;;19.63;13.70;;;;;;;13.88;87.68;96000.09;4913242;29;20047;-73
2021/06/10 04:07:42;;;;;;;17.88;14.20;;;;;;;13.95;87.44;95995.25;4921779;29;20056;-73
2021/06/10 04:10:08;;;;;;;18.63;13.73;;;;;;;13.87;87.73;95998.50;4897780;29;20041;-73
2021/06/10 04:12:34;;;;;;;19.80;13.88;;;;;;;13.88;87.89;95994.81;4899351;29;20498;-73
2021/06/10 04:14:59;;;;;;;21.08;14.68;;;;;;;13.91;87.87;95996.88;4897178;29;20119;-73
2021/06/10 04:17:25;;;;;;;18.17;13.82;;;;;;;13.93;87.61;95992.09;4908494;29;20559;-73
2021/06/10 04:19:51;;;;;;;19.65;14.07;;;;;;;13.94;87.83;95996.31;4914112;29;20040;-76
2021/06/10 04:22:17;;;;;;;18.35;14.30;;;;;;;13.93;88.12;95986.81;4899679;29;20041;-76
2021/06/10 04:24:42;;;;;;;22.00;15.20;;;;;;;14.02;87.74;96001.03;4909502;29;20051;-76
2021/06/10 04:27:08;;;;;;;19.08;14.48;;;;;;;14.13;87.47;95995.63;4916754;29;20220;-76
2021/06/10 04:29:34;;;;;;;18.00;14.07;;;;;;;14.18;86.99;95998.25;4912813;29;20391;-76
2021/06/10 04:32:00;;;;;;;18.52;14.85;;;;;;;14.23;86.81;96000.81;4894350;29;20048;-75
2021/06/10 04:34:26;;;;;;;17.35;13.75;;;;;;;14.30;86.46;96003.91;4895099;29;20041;-76
2021/06/10 04:36:52;;;;;;;17.27;13.02;;;;;;;14.30;86.91;96001.28;4898144;29;20052;-76
2021/06/10 04:39:17;;;;;;;19.65;13.68;;;;;;;14.28;86.83;95998.13;4903290;29;20436;-75
2021/06/10 04:41:43;;;;;;;18.17;14.07;;;;;;;14.31;87.00;96000.22;4919117;29;20067;-76
2021/06/10 04:44:08;;;;;;;16.40;13.23;;;;;;;14.37;86.65;96001.72;4925550;29;20059;-76
2021/06/10 04:46:35;;;;;;;18.33;13.60;;;;;;;14.42;86.46;96003.53;4920333;29;20037;-76
2021/06/10 04:49:01;;;;;;;16.02;12.77;;;;;;;14.49;85.98;96013.78;4908774;29;20051;-76
2021/06/10 04:51:27;;;;;;;18.80;13.15;;;;;;;14.49;85.47;96013.78;4902106;29;20415;-75
2021/06/10 04:53:53;;;;;;;17.40;12.75;;;;;;;14.52;85.71;96013.22;4898534;29;20100;-76
2021/06/10 04:56:21;;;;;;;15.57;12.43;;;;;;;14.56;85.35;96009.72;4898892;29;20045;-76
2021/06/10 04:58:46;;;;;;;16.00;13.18;;;;;;;14.52;85.79;96013.22;4911913;29;20086;-76
2021/06/10 05:01:12;;;;;;;15.57;13.00;;;;;;;14.54;85.45;96014.53;4906413;29;20483;-79
2021/06/10 05:03:37;;;;;;;15.35;12.57;;;;;;;14.57;85.17;96010.53;4918226;29;20045;-74
2021/06/10 05:06:03;;;;;;;16.08;12.60;;;;;;;14.51;85.62;96012.44;4914421;29;20044;-74
2021/06/10 05:08:28;;;;;;;17.98;12.70;;;;;;;14.56;85.52;96019.53;4907717;29;20053;-74
2021/06/10 05:10:54;;;;;;;17.23;13.32;;;;;;;14.67;85.33;96021.03;4909496;29;20565;-73
2021/06/10 05:13:20;;;;;;;16.10;12.75;;;;;;;14.75;85.07;96016.19;4905051;29;20064;-74
2021/06/10 05:15:45;;;;;;;15.63;12.55;;;;;;;14.92;84.16;96011.19;4910107;29;20079;-73
2021/06/10 05:18:11;;;;;;;18.77;13.10;;;;;;;14.95;84.40;96023.88;4916468;29;20482;-74
2021/06/10 05:20:37;;;;;;;16.88;13.07;;;;;;;15.07;83.66;96016.31;4912396;29;20055;-72
2021/06/10 05:23:02;;;;;;;16.42;12.48;;;;;;;15.14;83.74;96017.81;4931245;29;20043;-73
2021/06/10 05:25:28;;;;;;;17.00;13.10;;;;;;;15.17;82.99;96017.22;4935279;29;20077;-73
2021/06/10 05:27:54;;;;;;;19.77;13.65;;;;;;;15.21;83.14;96012.94;4929499;29;20043;-71
2021/06/10 05:30:19;;;;;;;18.88;13.18;;;;;;;15.25;83.15;96020.03;4924009;29;20052;-73
2021/06/10 05:32:45;;;;;;;20.80;13.20;;;;;;;15.26;82.64;96015.53;4929137;29;20035;-73
2021/06/10 05:35:12;;;;;;;14.80;11.75;;;;;;;15.27;82.29;96017.13;4922410;29;20167;-72
2021/06/10 05:37:37;;;;;;;16.50;12.45;;;;;;;15.38;82.04;96013.22;4922066;29;20086;-73
2021/06/10 05:40:05;;;;;;;17.75;13.45;;;;;;;15.40;82.55;96021.69;4899699;29;20044;-73
2021/06/10 05:42:31;;;;;;;18.63;12.48;;;;;;;15.59;81.32;96018.25;4912168;29;20064;-74
2021/06/10 05:44:56;;;;;;;15.63;12.45;;;;;;;15.65;81.20;96017.06;4911637;29;20076;-74
2021/06/10 05:47:22;;;;;;;17.55;12.23;;;;;;;15.77;80.67;96014.78;4901641;29;20040;-73
2021/06/10 05:49:48;;;;;;;18.27;12.63;;;;;;;15.88;80.29;96025.25;4894905;29;20546;-74
2021/06/10 05:52:14;;;;;;;18.75;12.05;;;;;;;15.93;80.06;96019.84;4915726;29;20390;-74
2021/06/10 05:54:39;;;;;;;16.98;12.68;;;;;;;15.99;80.05;96016.03;4913375;29;20052;-74
2021/06/10 05:57:05;;;;;;;16.35;12.52;;;;;;;16.05;79.53;96014.88;4917838;29;20510;-74
2021/06/10 05:59:31;;;;;;;15.65;12.40;;;;;;;16.09;79.61;96018.53;4911388;29;20080;-72
2021/06/10 06:01:57;;;;;;;15.60;12.68;;;;;;;16.07;79.68;96020.66;4908789;29;20490;-74
2021/06/10 06:04:22;;;;;;;16.98;12.38;;;;;;;16.09;79.91;96026.50;4922921;29;20048;-74
2021/06/10 06:06:48;;;;;;;17.38;12.90;;;;;;;16.09;79.47;96026.50;4897349;29;20522;-72
2021/06/10 06:09:15;;;;;;;15.85;11.90;;;;;;;16.09;79.35;96034.44;4896780;29;20183;-74
2021/06/10 06:11:40;;;;;;;15.52;12.40;;;;;;;16.18;79.83;96033.78;4896004;29;20051;-73
2021/06/10 06:16:34;;;;;;;17.55;11.95;;;;;;;16.36;79.16;96035.56;4920145;29;20051;-73
2021/06/10 06:19:01;;;;;;;16.92;13.00;;;;;;;16.55;77.46;96026.72;4934439;29;20501;-73
2021/06/10 06:21:27;;;;;;;15.35;12.10;;;;;;;16.55;77.91;96032.03;4912317;29;20044;-74
2021/06/10 06:23:53;;;;;;;16.13;12.07;;;;;;;16.57;77.22;96032.56;4925302;29;20417;-73
2021/06/10 06:26:20;;;;;;;15.40;12.13;;;;;;;16.62;77.16;96037.75;4928481;29;20050;-73
2021/06/10 06:28:45;;;;;;;17.75;12.13;;;;;;;16.57;77.39;96035.22;4929005;29;20091;-73
2021/06/10 06:31:11;;;;;;;16.40;12.70;;;;;;;16.59;77.66;96038.34;4906528;29;20040;-73
2021/06/10 06:33:37;;;;;;;18.90;12.30;;;;;;;16.64;77.21;96035.59;4921654;29;20421;-74
2021/06/10 06:36:03;;;;;;;15.80;12.65;;;;;;;16.65;77.68;96026.56;4895173;29;20427;-74
2021/06/10 06:38:28;;;;;;;18.75;13.75;;;;;;;16.69;77.99;96032.06;4894999;29;20051;-74
2021/06/10 06:40:54;;;;;;;15.50;12.43;;;;;;;16.82;77.87;96027.81;4912003;29;20410;-73
2021/06/10 06:43:19;;;;;;;19.40;14.13;;;;;;;16.78;76.99;96030.31;4919896;29;20047;-73
2021/06/10 06:45:46;;;;;;;17.30;13.90;;;;;;;16.71;77.10;96036.00;4896155;29;20554;-73
2021/06/10 06:48:14;;;;;;;20.48;14.10;;;;;;;16.77;77.16;96028.72;4902684;29;20040;-73
2021/06/10 06:50:40;;;;;;;27.65;17.25;;;;;;;16.99;76.57;96041.31;4915116;29;20143;-72
2021/06/10 06:53:06;;;;;;;23.90;16.40;;;;;;;17.16;75.54;96034.63;4918829;29;20375;-73
2021/06/10 06:55:32;;;;;;;23.23;16.55;;;;;;;17.10;75.37;96032.06;4913497;29;20080;-73
2021/06/10 06:57:57;;;;;;;23.45;15.93;;;;;;;17.12;75.68;96035.22;4910498;29;20039;-73
2021/06/10 07:00:24;;;;;;;22.88;16.05;;;;;;;17.03;75.97;96037.00;4913244;29;20040;-73
2021/06/10 07:02:49;;;;;;;21.70;15.98;;;;;;;17.18;75.30;96035.09;4922784;29;20075;-73
2021/06/10 07:05:15;;;;;;;24.92;16.90;;;;;;;17.29;74.78;96033.78;4901863;29;20110;-73
2021/06/10 07:07:42;;;;;;;24.90;17.55;;;;;;;17.43;74.18;96033.78;4908430;29;20128;-73
2021/06/10 07:10:08;;;;;;;22.08;16.58;;;;;;;17.69;74.34;96041.19;4895774;29;20462;-73
2021/06/10 07:12:34;;;;;;;22.15;16.65;;;;;;;17.76;73.28;96042.31;4899850;29;20040;-73
2021/06/10 07:15:00;;;;;;;23.25;16.73;;;;;;;17.71;72.92;96037.09;4912497;29;20533;-73
2021/06/10 07:17:26;;;;;;;21.95;16.35;;;;;;;17.86;72.51;96035.16;4899948;29;20570;-73
2021/06/10 07:19:54;;;;;;;26.77;17.15;;;;;;;17.96;72.47;96042.97;4895300;29;20049;-73
2021/06/10 07:22:20;;;;;;;21.13;16.45;;;;;;;17.94;71.41;96031.81;4913789;29;20044;-73
2021/06/10 07:24:47;;;;;;;21.50;16.08;;;;;;;18.02;71.91;96039.06;4918392;29;20048;-73
2021/06/10 07:27:16;;;;;;;24.10;16.15;;;;;;;18.09;70.92;96042.09;4911420;29;20103;-73
2021/06/10 07:29:42;;;;;;;22.95;16.92;;;;;;;18.14;71.01;96028.63;4895191;29;20521;-73
2021/06/10 07:32:08;;;;;;;19.35;15.50;;;;;;;18.29;70.20;96034.69;4911971;29;20044;-73
2021/06/10 07:34:34;;;;;;;24.10;15.90;;;;;;;18.29;70.14;96038.13;4913934;29;20152;-73
2021/06/10 07:37:00;;;;;;;21.60;15.52;;;;;;;18.22;69.47;96037.00;4899848;29;20048;-73
2021/06/10 07:39:25;;;;;;;20.58;15.00;;;;;;;18.22;71.11;96037.00;4895426;29;20041;-73
2021/06/10 07:41:51;;;;;;;22.40;15.55;;;;;;;18.18;69.75;96042.91;4912720;29;20045;-73
2021/06/10 07:44:17;;;;;;;20.58;15.35;;;;;;;18.21;69.70;96035.44;4903269;29;20427;-73
2021/06/10 07:46:42;;;;;;;19.95;14.98;;;;;;;18.21;70.80;96040.75;4906204;29;20039;-74
2021/06/10 07:49:08;;;;;;;18.65;15.20;;;;;;;18.26;69.77;96043.28;4908735;29;20052;-73
2021/06/10 07:51:33;;;;;;;20.00;15.40;;;;;;;18.35;68.76;96041.47;4903423;29;20112;-73
2021/06/10 07:53:59;;;;;;;19.67;15.20;;;;;;;18.27;70.09;96044.84;4915669;29;20047;-74
2021/06/10 07:56:24;;;;;;;19.70;14.65;;;;;;;18.48;69.60;96035.25;4921633;29;20040;-73
2021/06/10 07:58:50;;;;;;;21.15;14.73;;;;;;;18.61;69.35;96035.47;4912711;29;20096;-73
2021/06/10 08:01:15;;;;;;;20.02;14.68;;;;;;;18.44;68.77;96028.94;4912534;29;20056;-73
2021/06/10 08:03:41;;;;;;;20.13;14.48;;;;;;;18.61;68.93;96038.91;4915863;29;20087;-73
2021/06/10 08:06:07;;;;;;;19.38;13.27;;;;;;;18.84;67.67;96042.25;4903914;29;20559;-74
2021/06/10 08:08:32;;;;;;;19.20;13.20;;;;;;;18.94;67.34;96041.22;4906139;29;20048;-73
2021/06/10 08:11:03;;;;;;;19.17;13.07;;;;;;;18.92;68.77;96042.63;4895437;29;20128;-73
2021/06/10 08:13:29;;;;;;;16.35;13.55;;;;;;;18.82;68.12;96031.13;4902433;29;20103;-74
2021/06/10 08:15:55;;;;;;;20.92;13.70;;;;;;;18.89;68.22;96033.38;4934214;29;20048;-73
2021/06/10 08:18:20;;;;;;;20.33;13.32;;;;;;;18.90;67.92;96034.16;4906809;29;20071;-73
2021/06/10 08:20:46;;;;;;;22.98;13.35;;;;;;;18.95;67.79;96031.34;4914293;29;20044;-73
2021/06/10 08:23:12;;;;;;;18.27;13.90;;;;;;;18.93;67.37;96017.53;4928887;29;20517;-74
2021/06/10 08:25:43;;;;;;;17.50;12.77;;;;;;;18.99;67.81;96029.63;4924425;29;20060;-73
2021/06/10 08:28:11;;;;;;;20.02;13.98;;;;;;;18.99;66.16;96027.75;4927849;29;20406;-72
2021/06/10 08:30:37;;;;;;;18.77;14.35;;;;;;;18.99;64.77;96026.97;4914442;29;20495;-70
2021/06/10 08:33:02;;;;;;;22.33;14.77;;;;;;;19.02;65.28;96031.66;4898482;29;20045;-72
2021/06/10 08:35:28;;;;;;;19.80;13.18;;;;;;;19.30;64.42;96021.53;4901441;29;20550;-71
2021/06/10 08:37:54;;;;;;;20.80;13.75;;;;;;;19.33;65.41;96030.78;4909774;29;20037;-71
2021/06/10 08:40:19;;;;;;;17.67;12.80;;;;;;;19.46;64.26;96023.75;4903827;29;20049;-71
2021/06/10 08:42:47;;;;;;;15.40;12.88;;;;;;;19.76;63.69;96027.34;4917647;29;20079;-70
2021/06/10 08:45:15;;;;;;;18.10;14.52;;;;;;;19.87;62.12;96025.16;4905257;29;20458;-71
2021/06/10 08:47:43;;;;;;;16.65;13.20;;;;;;;20.09;62.22;96024.19;4932717;29;20044;-71
2021/06/10 08:50:12;;;;;;;20.77;12.10;;;;;;;20.22;62.51;96025.88;4932778;29;20506;-70
2021/06/10 08:52:39;;;;;;;16.30;13.23;;;;;;;20.28;61.97;96017.69;4914592;29;20044;-73
2021/06/10 08:55:06;;;;;;;15.27;12.40;;;;;;;20.36;62.45;96022.22;4908142;29;20529;-71
2021/06/10 08:57:32;;;;;;;16.52;12.20;;;;;;;20.62;60.32;96014.09;4931831;29;20058;-70
2021/06/10 08:59:57;;;;;;;18.25;12.00;;;;;;;20.76;59.53;96013.91;4927020;29;20418;-70
2021/06/10 09:02:22;;;;;;;14.68;12.75;;;;;;;20.75;59.76;96007.00;4913935;29;20044;-71
2021/06/10 09:04:48;;;;;;;15.20;12.07;;;;;;;20.58;61.25;96013.16;4912263;29;20100;-71
2021/06/10 09:07:14;;;;;;;19.80;12.98;;;;;;;20.45;60.61;96020.28;4922741;29;20040;-71
2021/06/10 09:09:45;;;;;;;16.00;13.27;;;;;;;20.47;60.84;96012.72;4902322;29;20044;-70
2021/06/10 09:12:13;;;;;;;13.63;12.05;;;;;;;20.41;60.40;96024.72;4911986;29;20047;-71
2021/06/10 09:14:57;;;;;;;17.77;12.38;;;;;;;20.28;60.72;96021.13;4913538;29;20123;-72
2021/06/10 09:17:34;;;;;;;16.97;12.03;;;;;;;20.20;61.86;96014.72;4911308;29;21259;-71
2021/06/10 09:20:01;;;;;;;16.60;12.93;;;;;;;20.06;61.81;96019.47;4912472;29;20059;-72
2021/06/10 09:22:35;;;;;;;15.68;12.38;;;;;;;20.18;61.82;96022.25;4894150;29;20047;-72
2021/06/10 09:25:09;;;;;;;14.88;12.50;;;;;;;20.07;61.25;96018.38;4913678;29;20099;-71
2021/06/10 09:27:49;;;;;;;;;;;;;;;20.09;61.86;96024.19;4935393;29;20501;-71
2021/06/10 09:30:31;;;;;;;16.58;12.95;;;;;;;19.94;61.02;96022.00;4904301;29;19955;-71
2021/06/10 09:32:57;;;;;;;17.48;12.65;;;;;;;19.95;62.00;96012.88;4897514;29;20049;-71
2021/06/10 09:35:28;;;;;;;17.17;12.18;;;;;;;20.20;61.95;96027.28;4904095;29;20503;-70
2021/06/10 09:37:59;;;;;;;15.48;13.25;;;;;;;20.03;61.67;96026.22;4907349;29;20048;-71
2021/06/10 09:40:26;;;;;;;17.60;12.20;;;;;;;20.15;59.91;96025.56;4903759;29;20455;-72
2021/06/10 09:42:51;;;;;;;17.33;11.75;;;;;;;20.63;59.05;96018.34;4907850;29;20563;-71
2021/06/10 09:45:19;;;;;;;14.82;11.80;;;;;;;20.71;59.10;96022.09;4896378;29;20120;-69
2021/06/10 09:47:47;;;;;;;15.95;11.93;;;;;;;20.80;58.71;96009.47;4911470;29;20137;-70
2021/06/10 09:50:22;;;;;;;14.82;12.45;;;;;;;20.66;57.66;96019.56;4931453;29;20437;-71
2021/06/10 09:52:55;;;;;;;16.17;13.05;;;;;;;20.84;57.56;96009.63;4908800;29;20036;-70
2021/06/10 09:55:32;;;;;;;17.02;12.85;;;;;;;20.75;57.76;96012.34;4925332;29;20044;-73
2021/06/10 09:58:07;;;;;;;13.38;11.07;;;;;;;21.08;57.46;96009.00;4906336;29;20044;-71
2021/06/10 10:00:33;;;;;;;15.88;12.60;;;;;;;21.17;55.38;96008.94;4906690;29;20036;-70
2021/06/10 10:02:59;;;;;;;13.60;11.60;;;;;;;21.24;57.45;96012.66;4896820;29;20040;-72
2021/06/10 10:05:25;;;;;;;14.38;10.88;;;;;;;21.22;56.20;96014.91;4917061;29;20060;-70
2021/06/10 10:07:52;;;;;;;14.77;11.35;;;;;;;21.23;57.25;96013.78;4920596;29;20044;-70
2021/06/10 10:10:18;;;;;;;16.23;11.05;;;;;;;21.16;57.16;96013.53;4907404;29;20057;-71
2021/06/10 10:12:45;;;;;;;16.08;11.68;;;;;;;20.74;57.25;96005.41;4907243;29;20040;-70
2021/06/10 10:15:12;;;;;;;13.40;11.30;;;;;;;20.72;57.13;96008.41;4912439;29;20119;-73
2021/06/10 10:17:38;;;;;;;12.70;10.38;;;;;;;20.87;57.33;96009.75;4922151;29;20067;-72
2021/06/10 10:20:06;;;;;;;12.90;10.13;;;;;;;20.89;57.45;96010.22;4915776;29;20490;-70
2021/06/10 10:22:32;;;;;;;11.93;10.38;;;;;;;20.94;56.74;96007.34;4912486;29;20063;-69
2021/06/10 10:24:59;;;;;;;12.40;10.70;;;;;;;20.77;57.11;95999.41;4910879;29;20076;-71
2021/06/10 10:27:25;;;;;;;14.07;10.20;;;;;;;20.81;56.74;95996.91;4895556;29;20281;-70
2021/06/10 10:29:52;;;;;;;12.98;10.45;;;;;;;20.70;56.78;95999.94;4910084;29;20368;-70
2021/06/10 10:32:24;;;;;;;14.80;10.40;;;;;;;20.50;58.39;95993.41;4914181;29;20044;-68
2021/06/10 10:34:50;;;;;;;16.45;10.48;;;;;;;20.45;56.55;95998.13;4915714;29;20039;-71
2021/06/10 10:37:21;;;;;;;14.45;10.48;;;;;;;20.40;56.65;95993.72;4931088;29;20050;-71
2021/06/10 10:39:47;;;;;;;11.35;10.15;;;;;;;20.67;55.09;95989.09;4922311;29;20052;-71
2021/06/10 10:42:37;;;;;;;12.98;10.05;;;;;;;20.77;56.35;95983.38;4894897;29;20529;-71
2021/06/10 10:45:10;;;;;;;11.63;9.90;;;;;;;21.10;54.94;95980.03;4907010;29;20060;-71
2021/06/10 10:47:48;;;;;;;12.85;9.73;;;;;;;21.35;53.89;95980.16;4915257;29;20048;-70
2021/06/10 10:50:17;;;;;;;13.63;10.40;;;;;;;21.86;50.88;95988.09;4918208;29;20078;-71
2021/06/10 10:52:55;;;;;;;14.15;10.02;;;;;;;22.57;49.47;95989.69;4900843;29;20051;-70
2021/06/10 10:55:32;;;;;;;12.13;10.00;;;;;;;22.39;50.86;95983.75;4896151;29;20100;-70
2021/06/10 10:58:10;;;;;;;19.67;10.00;;;;;;;22.43;50.79;95983.88;4896265;29;20044;-73
2021/06/10 11:00:47;;;;;;;13.23;9.48;;;;;;;22.24;51.83;95976.31;4916084;29;20054;-73
2021/06/10 11:03:23;;;;;;;11.25;9.75;;;;;;;22.02;52.14;95980.22;4919827;29;20044;-73
2021/06/10 11:05:49;;;;;;;14.23;10.85;;;;;;;21.88;53.47;95970.59;4911461;29;20049;-73
2021/06/10 11:08:15;;;;;;;12.75;10.57;;;;;;;21.89;52.27;95966.78;4910939;29;20112;-73
2021/06/10 11:10:49;;;;;;;13.60;10.00;;;;;;;21.41;52.77;95973.50;4914582;29;20423;-73
2021/06/10 11:13:22;;;;;;;12.52;10.77;;;;;;;21.37;54.39;95968.00;4914104;29;20574;-72
2021/06/10 11:15:51;;;;;;;13.02;10.23;;;;;;;21.70;54.94;95969.19;4920229;29;20114;-73
2021/06/10 11:18:43;;;;;;;20.42;15.10;;;;;;;21.95;53.40;95970.81;4927313;29;20059;-73
2021/06/10 11:21:10;;;;;;;40.58;27.00;;;;;;;21.98;51.46;95964.78;4913861;29;20068;-71